createdAt,value
2019-05-02T00:01:39.806Z,11.66
2019-05-02T00:04:06.987Z,11.67
2019-05-02T00:06:37.973Z,11.68
2019-05-02T00:09:09.169Z,11.64
2019-05-02T00:11:36.350Z,11.54
2019-05-02T00:14:05.459Z,11.45
2019-05-02T00:16:32.766Z,11.41
2019-05-02T00:18:59.920Z,11.42
2019-05-02T00:21:27.737Z,11.43
2019-05-02T00:23:59.183Z,11.42
2019-05-02T00:26:24.841Z,11.52
2019-05-02T00:28:52.917Z,11.57
2019-05-02T00:31:20.927Z,11.47
2019-05-02T00:33:48.152Z,11.32
2019-05-02T00:36:15.362Z,11.24
2019-05-02T00:38:42.551Z,11.29
2019-05-02T00:41:09.696Z,11.21
2019-05-02T00:43:36.915Z,11.18
2019-05-02T00:46:04.117Z,11.22
2019-05-02T00:48:46.222Z,11.15
2019-05-02T00:51:13.534Z,11.09
2019-05-02T00:53:44.456Z,10.98
2019-05-02T00:56:10.381Z,10.88
2019-05-02T00:58:37.691Z,10.85
2019-05-02T01:01:33.037Z,10.87
2019-05-02T01:04:04.533Z,10.94
2019-05-02T01:06:31.723Z,10.99
2019-05-02T01:08:58.878Z,11.00
2019-05-02T01:11:28.371Z,11.01
2019-05-02T01:13:55.663Z,11.11
2019-05-02T01:16:24.340Z,11.14
2019-05-02T01:18:51.558Z,11.08
2019-05-02T01:21:18.745Z,11.06
2019-05-02T01:23:45.933Z,11.03
2019-05-02T01:26:13.045Z,11.03
2019-05-02T01:28:55.742Z,11.12
2019-05-02T01:31:37.632Z,11.24
2019-05-02T01:34:17.881Z,11.25
2019-05-02T01:36:52.711Z,11.31
2019-05-02T01:39:19.881Z,11.34
2019-05-02T01:41:46.939Z,11.36
2019-05-02T01:44:14.159Z,11.44
2019-05-02T01:46:41.330Z,11.50
2019-05-02T01:49:09.346Z,11.51
2019-05-02T01:51:37.097Z,11.47
2019-05-02T01:54:10.049Z,11.43
2019-05-02T01:56:35.067Z,11.33
2019-05-02T01:59:02.395Z,11.22
2019-05-02T02:01:29.478Z,11.11
2019-05-02T02:03:56.693Z,10.97
2019-05-02T02:06:23.925Z,10.81
2019-05-02T02:08:51.155Z,10.68
2019-05-02T02:11:18.662Z,10.56
2019-05-02T02:13:45.859Z,10.47
2019-05-02T02:16:13.369Z,10.42
2019-05-02T02:18:50.166Z,10.39
2019-05-02T02:21:36.977Z,10.35
2019-05-02T02:24:08.224Z,10.27
2019-05-02T02:26:35.447Z,10.15
2019-05-02T02:29:03.123Z,10.07
2019-05-02T02:31:31.662Z,10.06
2019-05-02T02:33:58.762Z,10.11
2019-05-02T02:36:31.799Z,10.20
2019-05-02T02:38:55.223Z,10.27
2019-05-02T02:41:22.380Z,10.33
2019-05-02T02:44:12.199Z,10.39
2019-05-02T02:46:41.788Z,10.47
2019-05-02T02:49:14.222Z,10.46
2019-05-02T02:51:38.171Z,10.56
2019-05-02T02:54:05.766Z,10.68
2019-05-02T02:56:34.386Z,10.67
2019-05-02T02:59:02.298Z,10.60
2019-05-02T03:01:31.320Z,10.61
2019-05-02T03:04:01.937Z,10.63
2019-05-02T03:06:27.684Z,10.82
2019-05-02T03:08:54.964Z,10.82
2019-05-02T03:11:25.511Z,10.78
2019-05-02T03:14:06.675Z,10.68
2019-05-02T03:16:30.262Z,10.57
2019-05-02T03:18:57.430Z,10.43
2019-05-02T03:21:24.694Z,10.29
2019-05-02T03:24:02.265Z,10.33
2019-05-02T03:26:20.888Z,10.29
2019-05-02T03:28:57.291Z,10.17
2019-05-02T03:31:29.830Z,10.16
2019-05-02T03:33:55.115Z,10.13
2019-05-02T03:36:27.999Z,10.13
2019-05-02T03:38:44.971Z,10.03
2019-05-02T03:41:13.649Z,9.90
2019-05-02T03:43:42.097Z,9.88
2019-05-02T03:46:13.454Z,9.86
2019-05-02T03:48:38.343Z,9.79
2019-05-02T03:51:19.669Z,9.72
2019-05-02T03:53:36.424Z,9.69
2019-05-02T03:56:10.570Z,9.79
2019-05-02T03:58:32.816Z,9.80
2019-05-02T04:01:01.625Z,9.77
2019-05-02T04:03:34.139Z,9.74
2019-05-02T04:05:58.762Z,9.68
2019-05-02T04:08:26.327Z,9.67
2019-05-02T04:11:23.467Z,9.66
2019-05-02T04:13:52.209Z,9.65
2019-05-02T04:16:19.611Z,9.71
2019-05-02T04:18:54.626Z,9.79
2019-05-02T04:21:22.178Z,9.88
2019-05-02T04:23:45.826Z,9.98
2019-05-02T04:26:15.429Z,10.09
2019-05-02T04:28:45.685Z,10.19
2019-05-02T04:31:12.497Z,10.35
2019-05-02T04:33:39.807Z,10.48
2019-05-02T04:36:14.151Z,10.63
2019-05-02T04:38:44.269Z,10.77
2019-05-02T04:41:05.240Z,10.89
2019-05-02T04:43:32.401Z,11.00
2019-05-02T04:46:00.318Z,11.22
2019-05-02T04:48:28.487Z,11.50
2019-05-02T04:51:02.010Z,11.79
2019-05-02T04:53:25.809Z,12.11
2019-05-02T04:56:01.734Z,12.42
2019-05-02T04:58:27.503Z,13.14
2019-05-02T05:00:58.109Z,14.09
2019-05-02T05:03:21.363Z,14.84
2019-05-02T05:05:48.425Z,15.26
2019-05-02T05:08:17.556Z,15.08
2019-05-02T05:10:45.159Z,14.85
2019-05-02T05:13:19.437Z,14.43
2019-05-02T05:15:48.918Z,14.08
2019-05-02T05:18:14.482Z,14.02
2019-05-02T05:20:40.538Z,14.58
2019-05-02T05:23:08.309Z,15.88
2019-05-02T05:25:40.852Z,17.41
2019-05-02T05:28:09.076Z,18.75
2019-05-02T05:30:44.707Z,20.01
2019-05-02T05:33:09.913Z,21.09
2019-05-02T05:35:35.337Z,22.19
2019-05-02T05:38:02.516Z,23.18
2019-05-02T05:40:32.083Z,24.09
2019-05-02T05:43:02.115Z,24.73
2019-05-02T05:45:29.111Z,25.23
2019-05-02T05:48:00.958Z,25.86
2019-05-02T05:50:27.566Z,26.23
2019-05-02T05:52:55.048Z,26.80
2019-05-02T05:55:24.317Z,27.29
2019-05-02T05:57:59.537Z,27.46
2019-05-02T06:00:23.132Z,27.62
2019-05-02T06:02:56.099Z,28.03
2019-05-02T06:05:19.909Z,28.77
2019-05-02T06:07:47.472Z,29.35
2019-05-02T06:10:14.809Z,29.88
2019-05-02T06:12:41.989Z,30.18
2019-05-02T06:15:09.529Z,30.31
2019-05-02T06:17:36.758Z,30.35
2019-05-02T06:20:04.494Z,30.63
2019-05-02T06:22:31.989Z,30.97
2019-05-02T06:25:08.418Z,31.12
2019-05-02T06:27:33.439Z,31.32
2019-05-02T06:30:00.983Z,31.58
2019-05-02T06:32:28.292Z,31.73
2019-05-02T06:34:55.516Z,32.05
2019-05-02T06:37:22.712Z,32.36
2019-05-02T06:39:49.975Z,32.60
2019-05-02T06:42:17.151Z,33.01
2019-05-02T06:44:44.543Z,33.11
2019-05-02T06:47:11.743Z,33.84
2019-05-02T06:49:38.820Z,34.16
2019-05-02T06:52:06.011Z,34.47
2019-05-02T06:54:33.253Z,35.03
2019-05-02T06:57:00.438Z,35.88
2019-05-02T06:59:27.657Z,36.24
2019-05-02T07:01:57.450Z,36.10
2019-05-02T07:04:25.071Z,36.42
2019-05-02T07:06:58.866Z,36.65
2019-05-02T07:09:21.768Z,36.70
2019-05-02T07:11:57.003Z,36.93
2019-05-02T07:14:23.264Z,36.35
2019-05-02T07:17:05.701Z,36.45
2019-05-02T07:19:37.996Z,37.38
2019-05-02T07:22:05.235Z,38.26
2019-05-02T07:24:32.733Z,38.81
2019-05-02T07:27:02.297Z,39.00
2019-05-02T07:29:29.134Z,38.84
2019-05-02T07:31:56.317Z,38.98
2019-05-02T07:34:23.795Z,39.33
2019-05-02T07:36:50.891Z,39.75
2019-05-02T07:39:18.088Z,39.87
2019-05-02T07:41:45.203Z,40.03
2019-05-02T07:44:12.577Z,40.53
2019-05-02T07:46:51.159Z,40.70
2019-05-02T07:49:08.875Z,41.31
2019-05-02T07:51:36.110Z,41.31
2019-05-02T07:54:03.392Z,42.26
2019-05-02T07:56:30.847Z,42.40
2019-05-02T07:58:58.100Z,42.44
2019-05-02T08:01:25.565Z,42.49
2019-05-02T08:03:52.739Z,42.64
2019-05-02T08:06:20.010Z,43.07
2019-05-02T08:08:47.226Z,42.68
2019-05-02T08:11:14.415Z,42.78
2019-05-02T08:13:41.597Z,43.31
2019-05-02T08:16:08.803Z,43.38
2019-05-02T08:18:36.285Z,43.95
2019-05-02T08:21:03.758Z,44.06
2019-05-02T08:23:30.804Z,44.14
2019-05-02T08:25:58.291Z,44.57
2019-05-02T08:28:34.525Z,43.83
2019-05-02T08:31:01.697Z,43.73
2019-05-02T08:33:34.386Z,43.54
2019-05-02T08:35:57.979Z,43.62
2019-05-02T08:38:25.159Z,44.25
2019-05-02T08:40:52.349Z,44.21
2019-05-02T08:43:19.737Z,44.39
2019-05-02T08:45:46.912Z,44.56
2019-05-02T08:48:13.958Z,44.39
2019-05-02T08:50:41.045Z,44.82
2019-05-02T08:53:08.213Z,45.04
2019-05-02T08:55:35.517Z,45.20
2019-05-02T08:58:06.584Z,45.24
2019-05-02T09:00:37.327Z,45.10
2019-05-02T09:03:02.622Z,44.79
2019-05-02T09:05:30.320Z,44.23
2019-05-02T09:07:57.494Z,43.74
2019-05-02T09:10:24.604Z,44.03
2019-05-02T09:12:52.220Z,43.68
2019-05-02T09:15:19.350Z,43.55
2019-05-02T09:17:53.076Z,43.74
2019-05-02T09:20:20.368Z,43.33
2019-05-02T09:22:46.629Z,42.51
2019-05-02T09:25:14.598Z,42.11
2019-05-02T09:27:42.077Z,42.42
2019-05-02T09:30:11.906Z,42.12
2019-05-02T09:32:38.919Z,41.65
2019-05-02T09:35:06.414Z,40.78
2019-05-02T09:37:33.578Z,40.50
2019-05-02T09:40:02.203Z,40.14
2019-05-02T09:42:29.611Z,39.93
2019-05-02T09:44:57.120Z,39.37
2019-05-02T09:47:27.263Z,38.29
2019-05-02T09:50:29.679Z,36.83
2019-05-02T09:52:52.484Z,36.58
2019-05-02T09:55:19.911Z,35.20
2019-05-02T09:57:48.226Z,33.39
2019-05-02T10:00:36.365Z,31.57
2019-05-02T10:03:03.582Z,30.09
2019-05-02T10:05:32.192Z,29.22
2019-05-02T10:08:03.163Z,28.04
2019-05-02T10:10:29.325Z,27.50
2019-05-02T10:12:56.501Z,26.65
2019-05-02T10:15:23.691Z,26.01
2019-05-02T10:17:51.940Z,25.47
2019-05-02T10:20:23.487Z,25.14
2019-05-02T10:22:48.711Z,24.73
2019-05-02T10:25:15.903Z,24.42
2019-05-02T10:27:47.526Z,24.37
2019-05-02T10:30:15.872Z,24.40
2019-05-02T10:32:47.191Z,24.59
2019-05-02T10:35:16.041Z,24.84
2019-05-02T10:37:43.275Z,24.57
2019-05-02T10:40:15.456Z,24.52
2019-05-02T10:42:41.921Z,24.55
2019-05-02T10:45:12.982Z,24.68
2019-05-02T10:47:39.763Z,24.57
2019-05-02T10:50:17.346Z,24.52
2019-05-02T10:52:45.123Z,24.40
2019-05-02T10:55:12.925Z,24.50
2019-05-02T10:57:42.016Z,24.55
2019-05-02T11:00:12.781Z,24.72
2019-05-02T11:02:52.476Z,24.77
2019-05-02T11:05:22.511Z,24.85
2019-05-02T11:07:52.166Z,25.10
2019-05-02T11:10:19.009Z,25.25
2019-05-02T11:13:09.098Z,25.40
2019-05-02T11:16:05.233Z,25.34
2019-05-02T11:18:47.975Z,25.32
2019-05-02T11:21:15.147Z,25.01
2019-05-02T11:23:42.392Z,25.01
2019-05-02T11:26:14.490Z,24.89
2019-05-02T11:28:39.076Z,24.88
2019-05-02T11:31:07.534Z,24.76
2019-05-02T11:33:35.366Z,24.82
2019-05-02T11:36:02.666Z,24.89
2019-05-02T11:38:30.457Z,24.85
2019-05-02T11:40:57.881Z,24.92
2019-05-02T11:43:25.104Z,24.96
2019-05-02T11:45:55.797Z,24.88
2019-05-02T11:48:22.626Z,24.87
2019-05-02T11:50:52.105Z,25.02
2019-05-02T11:53:29.388Z,25.14
2019-05-02T11:55:48.107Z,25.10
2019-05-02T11:58:15.309Z,25.07
2019-05-02T12:00:48.041Z,24.95
2019-05-02T12:03:36.839Z,24.88
2019-05-02T12:06:06.692Z,24.98
2019-05-02T12:08:33.252Z,25.05
2019-05-02T12:11:01.970Z,25.03
2019-05-02T12:13:29.868Z,24.91
2019-05-02T12:15:57.110Z,24.96
2019-05-02T12:18:24.335Z,24.95
2019-05-02T12:20:52.158Z,25.15
2019-05-02T12:23:19.440Z,25.38
2019-05-02T12:25:46.660Z,25.40
2019-05-02T12:28:13.968Z,25.15
2019-05-02T12:30:41.852Z,25.05
2019-05-02T12:33:09.538Z,24.94
2019-05-02T12:35:36.976Z,24.75
2019-05-02T12:38:04.271Z,24.75
2019-05-02T12:40:32.568Z,24.90
2019-05-02T12:42:59.821Z,25.14
2019-05-02T12:45:27.354Z,25.44
2019-05-02T12:47:54.470Z,25.63
2019-05-02T12:50:22.580Z,25.69
2019-05-02T12:52:52.054Z,25.70
2019-05-02T12:55:19.484Z,25.81
2019-05-02T12:57:46.692Z,25.97
2019-05-02T13:00:14.999Z,25.68
2019-05-02T13:02:47.663Z,25.19
2019-05-02T13:05:14.717Z,25.22
2019-05-02T13:07:42.790Z,25.23
2019-05-02T13:10:13.241Z,25.27
2019-05-02T13:12:41.923Z,25.06
2019-05-02T13:15:09.326Z,24.97
2019-05-02T13:17:43.871Z,24.83
2019-05-02T13:20:08.604Z,24.77
2019-05-02T13:22:45.819Z,24.57
2019-05-02T13:25:15.223Z,24.54
2019-05-02T13:27:47.085Z,24.80
2019-05-02T13:30:22.975Z,24.91
2019-05-02T13:32:57.597Z,25.14
2019-05-02T13:35:34.236Z,25.29
2019-05-02T13:38:03.411Z,25.28
2019-05-02T13:40:41.653Z,25.26
2019-05-02T13:43:08.999Z,25.02
2019-05-02T13:45:55.035Z,24.92
2019-05-02T13:48:22.464Z,24.94
2019-05-02T13:50:49.535Z,25.06
2019-05-02T13:53:16.764Z,24.98
2019-05-02T13:55:50.024Z,24.93
2019-05-02T13:58:21.637Z,24.56
2019-05-02T14:00:47.776Z,24.26
2019-05-02T14:03:15.061Z,23.93
2019-05-02T14:05:50.715Z,23.54
2019-05-02T14:08:37.118Z,23.18
2019-05-02T14:11:22.443Z,23.13
2019-05-02T14:13:49.811Z,23.27
2019-05-02T14:16:17.304Z,23.25
2019-05-02T14:18:44.480Z,23.04
2019-05-02T14:21:12.631Z,22.87
2019-05-02T14:23:41.897Z,22.98
2019-05-02T14:26:09.195Z,23.04
2019-05-02T14:28:36.535Z,22.97
2019-05-02T14:31:04.076Z,22.88
2019-05-02T14:33:33.174Z,22.73
2019-05-02T14:36:01.792Z,22.48
2019-05-02T14:38:29.220Z,22.34
2019-05-02T14:41:16.067Z,22.25
2019-05-02T14:44:09.041Z,22.12
2019-05-02T14:46:39.371Z,21.94
2019-05-02T14:49:05.354Z,22.08
2019-05-02T14:51:34.822Z,22.28
2019-05-02T14:54:07.956Z,22.45
2019-05-02T14:56:45.919Z,22.59
2019-05-02T14:59:09.260Z,22.71
2019-05-02T15:01:35.922Z,22.50
2019-05-02T15:04:08.109Z,22.24
2019-05-02T15:06:33.691Z,22.03
2019-05-02T15:09:02.399Z,21.94
2019-05-02T15:11:32.730Z,21.95
2019-05-02T15:13:59.709Z,22.11
2019-05-02T15:16:39.683Z,22.18
2019-05-02T15:18:57.154Z,22.28
2019-05-02T15:21:27.412Z,22.32
2019-05-02T15:23:57.880Z,22.39
2019-05-02T15:26:26.470Z,22.29
2019-05-02T15:28:53.172Z,22.16
2019-05-02T15:31:31.659Z,22.07
2019-05-02T15:34:14.024Z,21.97
2019-05-02T15:36:42.263Z,21.89
2019-05-02T15:41:44.745Z,21.69
2019-05-02T15:44:09.728Z,21.57
2019-05-02T15:46:36.960Z,21.39
2019-05-02T15:49:05.845Z,21.30
2019-05-02T15:51:33.199Z,21.17
2019-05-02T15:54:08.126Z,21.01
2019-05-02T15:56:32.439Z,20.90
2019-05-02T15:59:03.403Z,20.83
2019-05-02T16:01:53.234Z,20.81
2019-05-02T16:04:25.627Z,20.69
2019-05-02T16:06:52.877Z,20.62
2019-05-02T16:09:21.629Z,20.49
2019-05-02T16:11:53.158Z,20.40
2019-05-02T16:14:18.427Z,20.30
2019-05-02T16:16:45.690Z,20.26
2019-05-02T16:19:14.701Z,20.20
2019-05-02T16:24:32.095Z,20.25
2019-05-02T16:27:11.678Z,20.09
2019-05-02T16:30:07.558Z,20.00
2019-05-02T16:35:41.988Z,19.88
2019-05-02T16:41:24.989Z,19.74
2019-05-02T16:44:32.995Z,19.67
2019-05-02T16:47:14.002Z,19.59
2019-05-02T16:53:17.260Z,19.47
2019-05-02T16:58:58.175Z,19.51
2019-05-02T17:04:33.648Z,19.53
2019-05-02T17:10:22.976Z,19.42
2019-05-02T17:12:55.611Z,19.42
2019-05-02T17:15:45.058Z,19.50
2019-05-02T17:18:14.641Z,19.54
2019-05-02T17:20:53.579Z,19.60
2019-05-02T17:23:26.047Z,19.64
2019-05-02T17:29:41.513Z,19.46
2019-05-02T17:32:11.476Z,19.19
2019-05-02T17:34:45.188Z,19.09
2019-05-02T17:37:32.539Z,18.93
2019-05-02T17:43:22.702Z,18.53
2019-05-02T17:45:57.425Z,18.32
2019-05-02T17:48:26.429Z,18.16
2019-05-02T17:51:13.084Z,18.01
2019-05-02T17:54:22.811Z,18.08
2019-05-02T18:00:47.378Z,17.56
2019-05-02T18:03:24.279Z,17.52
2019-05-02T18:05:56.635Z,17.37
2019-05-02T18:08:23.733Z,17.19
2019-05-02T18:11:36.487Z,17.02
2019-05-02T18:17:29.170Z,16.81
2019-05-02T18:20:47.545Z,16.59
2019-05-02T18:23:34.250Z,16.55
2019-05-02T18:26:04.494Z,16.55
2019-05-02T18:28:47.032Z,16.72
2019-05-02T18:31:15.114Z,16.63
2019-05-02T18:36:43.893Z,16.56
2019-05-02T18:39:12.883Z,16.49
2019-05-02T18:41:51.907Z,16.45
2019-05-02T18:44:28.904Z,16.39
2019-05-02T18:46:57.758Z,16.32
2019-05-02T18:49:45.035Z,16.38
2019-05-02T18:52:12.243Z,16.41
2019-05-02T18:54:43.988Z,16.35
2019-05-02T18:57:24.402Z,16.29
2019-05-02T18:59:59.395Z,16.24
2019-05-02T19:02:34.082Z,16.21
2019-05-02T19:14:52.807Z,16.04
2019-05-02T19:17:21.831Z,15.91
2019-05-02T19:20:36.850Z,15.86
2019-05-02T19:23:04.079Z,15.83
2019-05-02T19:26:15.016Z,15.76
2019-05-02T19:29:08.517Z,15.69
2019-05-02T19:31:52.809Z,15.69
2019-05-02T19:34:22.770Z,15.60
2019-05-02T19:37:50.451Z,15.71
2019-05-02T19:43:40.254Z,15.51
2019-05-02T19:46:53.944Z,15.23
2019-05-02T19:49:22.109Z,15.16
2019-05-02T19:52:10.229Z,15.07
2019-05-02T19:54:39.947Z,14.93
2019-05-02T19:57:26.898Z,14.86
2019-05-02T19:59:57.124Z,14.81
2019-05-02T20:02:43.815Z,14.82
2019-05-02T20:05:25.523Z,14.79
2019-05-02T20:08:42.189Z,14.86
2019-05-02T20:11:32.911Z,15.06
2019-05-02T20:14:18.136Z,14.87
2019-05-02T20:22:48.434Z,14.57
2019-05-02T20:25:56.611Z,14.49
2019-05-02T20:28:24.085Z,14.44
2019-05-02T20:30:52.668Z,14.50
2019-05-02T20:33:27.362Z,14.55
2019-05-02T20:39:09.077Z,14.20
2019-05-02T20:41:38.108Z,13.92
2019-05-02T20:44:17.715Z,13.75
2019-05-02T20:46:45.008Z,13.61
2019-05-02T20:49:12.803Z,13.48
2019-05-02T20:52:02.463Z,13.63
2019-05-02T20:54:36.582Z,13.53
2019-05-02T21:00:32.187Z,13.49
2019-05-02T21:03:25.544Z,13.50
2019-05-02T21:06:12.509Z,13.53
2019-05-02T21:14:56.084Z,13.49
2019-05-02T21:17:23.334Z,13.45
2019-05-02T21:22:53.009Z,13.46
2019-05-02T21:25:41.778Z,13.42
2019-05-02T21:28:32.915Z,13.57
2019-05-02T21:34:33.670Z,13.46
2019-05-02T21:37:02.504Z,13.36
2019-05-02T21:39:36.278Z,13.36
2019-05-02T21:42:10.478Z,13.36
2019-05-02T21:44:37.815Z,13.32
2019-05-02T21:47:05.823Z,13.29
2019-05-02T21:52:46.605Z,13.29
2019-05-02T22:07:57.846Z,13.25
2019-05-02T22:10:25.090Z,13.25
2019-05-02T22:13:04.423Z,13.25
2019-05-02T22:15:32.479Z,13.24
2019-05-02T22:20:47.134Z,13.29
2019-05-02T22:26:15.409Z,13.28
2019-05-02T22:28:42.487Z,13.26
2019-05-02T22:31:12.162Z,13.24
2019-05-02T22:33:59.007Z,13.29
2019-05-02T22:36:26.246Z,13.32
2019-05-02T22:39:36.063Z,13.31
2019-05-02T22:48:17.897Z,13.41
2019-05-02T22:53:46.558Z,13.38
2019-05-02T22:56:25.809Z,13.35
2019-05-02T23:01:54.224Z,13.40
2019-05-02T23:04:23.311Z,13.41
2019-05-02T23:06:56.503Z,13.35
2019-05-02T23:09:23.696Z,13.31
2019-05-02T23:11:53.067Z,13.31
2019-05-02T23:15:01.999Z,13.29
2019-05-02T23:17:52.170Z,13.27
2019-05-02T23:21:21.753Z,13.29
2019-05-02T23:27:11.678Z,13.39
2019-05-02T23:29:46.415Z,13.38
2019-05-02T23:35:18.749Z,13.29
2019-05-02T23:37:45.966Z,13.19
2019-05-02T23:43:14.628Z,13.16
2019-05-02T23:45:42.303Z,13.07
2019-05-02T23:49:02.174Z,13.07
2019-05-02T23:51:42.619Z,13.00
2019-05-02T23:54:16.202Z,12.98
2019-05-02T23:56:43.423Z,12.99
2019-05-02T23:59:12.457Z,12.95
